sensor_id;sensor_type;location;lat;lon;timestamp;pressure;altitude;pressure_sealevel;temperature;humidity
75604;BME280;64187;51.010;13.792;2023-06-22T00:03:08;100535.41;;;20.23;81.18
75604;BME280;64187;51.010;13.792;2023-06-22T00:08:07;100531.53;;;20.10;81.24
75604;BME280;64187;51.010;13.792;2023-06-22T00:13:08;100539.25;;;19.89;82.49
75604;BME280;64187;51.010;13.792;2023-06-22T00:18:08;100549.91;;;19.77;83.05
75604;BME280;64187;51.010;13.792;2023-06-22T00:23:07;100549.56;;;19.59;83.82
75604;BME280;64187;51.010;13.792;2023-06-22T00:28:09;100563.47;;;19.49;84.05
75604;BME280;64187;51.010;13.792;2023-06-22T00:33:08;100563.34;;;19.78;81.88
75604;BME280;64187;51.010;13.792;2023-06-22T00:38:07;100566.56;;;19.43;84.16
75604;BME280;64187;51.010;13.792;2023-06-22T00:43:07;100563.91;;;19.94;81.46
75604;BME280;64187;51.010;13.792;2023-06-22T00:48:07;100564.63;;;19.62;83.12
75604;BME280;64187;51.010;13.792;2023-06-22T00:53:08;100558.34;;;19.62;83.58
75604;BME280;64187;51.010;13.792;2023-06-22T00:58:11;100560.84;;;19.39;84.67
75604;BME280;64187;51.010;13.792;2023-06-22T01:03:10;100565.19;;;19.45;84.32
75604;BME280;64187;51.010;13.792;2023-06-22T01:08:24;100545.44;;;19.43;83.99
75604;BME280;64187;51.010;13.792;2023-06-22T01:13:35;100560.00;;;19.63;83.48
75604;BME280;64187;51.010;13.792;2023-06-22T01:18:43;100562.81;;;19.76;82.31
75604;BME280;64187;51.010;13.792;2023-06-22T01:29:11;100549.78;;;19.25;84.54
75604;BME280;64187;51.010;13.792;2023-06-22T01:34:12;100562.53;;;19.16;84.56
75604;BME280;64187;51.010;13.792;2023-06-22T01:39:12;100562.94;;;19.04;85.45
75604;BME280;64187;51.010;13.792;2023-06-22T01:44:12;100573.53;;;18.92;86.27
75604;BME280;64187;51.010;13.792;2023-06-22T01:49:13;100556.66;;;19.04;84.62
75604;BME280;64187;51.010;13.792;2023-06-22T01:54:12;100557.75;;;19.03;84.90
75604;BME280;64187;51.010;13.792;2023-06-22T01:59:19;100575.34;;;18.72;86.17
75604;BME280;64187;51.010;13.792;2023-06-22T02:04:27;100563.63;;;18.67;86.42
75604;BME280;64187;51.010;13.792;2023-06-22T02:09:29;100559.91;;;18.52;86.95
75604;BME280;64187;51.010;13.792;2023-06-22T02:14:29;100556.25;;;18.62;86.25
75604;BME280;64187;51.010;13.792;2023-06-22T02:19:28;100545.75;;;18.99;84.08
75604;BME280;64187;51.010;13.792;2023-06-22T02:24:32;100544.91;;;18.74;85.41
75604;BME280;64187;51.010;13.792;2023-06-22T02:29:32;100555.72;;;18.60;86.07
75604;BME280;64187;51.010;13.792;2023-06-22T02:34:31;100565.94;;;18.55;86.48
75604;BME280;64187;51.010;13.792;2023-06-22T02:39:31;100549.13;;;18.90;84.41
75604;BME280;64187;51.010;13.792;2023-06-22T02:44:30;100549.81;;;18.48;86.46
75604;BME280;64187;51.010;13.792;2023-06-22T02:49:28;100573.78;;;18.03;89.02
75604;BME280;64187;51.010;13.792;2023-06-22T02:54:27;100574.81;;;18.70;85.54
75604;BME280;64187;51.010;13.792;2023-06-22T02:59:26;100575.44;;;18.62;85.18
75604;BME280;64187;51.010;13.792;2023-06-22T03:04:32;100565.66;;;18.56;85.68
75604;BME280;64187;51.010;13.792;2023-06-22T03:09:31;100575.88;;;18.45;86.47
75604;BME280;64187;51.010;13.792;2023-06-22T03:14:30;100573.41;;;18.49;85.97
75604;BME280;64187;51.010;13.792;2023-06-22T03:19:29;100564.66;;;18.47;86.58
75604;BME280;64187;51.010;13.792;2023-06-22T03:24:30;100558.63;;;18.45;86.22
75604;BME280;64187;51.010;13.792;2023-06-22T03:29:28;100530.47;;;18.39;86.82
75604;BME280;64187;51.010;13.792;2023-06-22T03:34:29;100516.31;;;18.56;86.00
75604;BME280;64187;51.010;13.792;2023-06-22T03:39:33;100542.06;;;18.55;85.44
75604;BME280;64187;51.010;13.792;2023-06-22T03:44:32;100544.81;;;18.55;85.44
75604;BME280;64187;51.010;13.792;2023-06-22T03:49:31;100543.19;;;18.83;84.67
75604;BME280;64187;51.010;13.792;2023-06-22T03:54:30;100553.09;;;18.79;84.10
75604;BME280;64187;51.010;13.792;2023-06-22T03:59:29;100541.41;;;18.92;84.23
75604;BME280;64187;51.010;13.792;2023-06-22T04:04:27;100549.63;;;18.68;85.52
75604;BME280;64187;51.010;13.792;2023-06-22T04:09:27;100537.44;;;19.04;84.09
75604;BME280;64187;51.010;13.792;2023-06-22T04:14:25;100555.78;;;19.27;83.07
75604;BME280;64187;51.010;13.792;2023-06-22T04:19:24;100565.50;;;19.20;83.33
75604;BME280;64187;51.010;13.792;2023-06-22T04:24:23;100564.50;;;19.10;84.12
75604;BME280;64187;51.010;13.792;2023-06-22T04:29:22;100570.34;;;19.28;83.44
75604;BME280;64187;51.010;13.792;2023-06-22T04:34:29;100558.13;;;20.75;80.21
75604;BME280;64187;51.010;13.792;2023-06-22T04:39:28;100558.81;;;21.50;73.85
75604;BME280;64187;51.010;13.792;2023-06-22T04:44:27;100586.72;;;21.93;70.80
75604;BME280;64187;51.010;13.792;2023-06-22T04:49:26;100587.16;;;21.87;71.32
75604;BME280;64187;51.010;13.792;2023-06-22T04:54:31;100593.91;;;22.40;68.58
75604;BME280;64187;51.010;13.792;2023-06-22T04:59:31;100607.97;;;22.29;69.24
75604;BME280;64187;51.010;13.792;2023-06-22T05:04:30;100619.47;;;22.85;66.44
75604;BME280;64187;51.010;13.792;2023-06-22T05:09:34;100630.19;;;22.55;67.57
75604;BME280;64187;51.010;13.792;2023-06-22T05:14:33;100647.00;;;22.45;67.80
75604;BME280;64187;51.010;13.792;2023-06-22T05:19:32;100656.22;;;22.94;67.20
75604;BME280;64187;51.010;13.792;2023-06-22T05:24:33;100658.59;;;23.10;65.25
75604;BME280;64187;51.010;13.792;2023-06-22T05:29:32;100653.94;;;22.96;65.62
75604;BME280;64187;51.010;13.792;2023-06-22T05:34:31;100656.13;;;22.77;66.73
75604;BME280;64187;51.010;13.792;2023-06-22T05:39:30;100643.09;;;22.69;66.72
75604;BME280;64187;51.010;13.792;2023-06-22T05:44:28;100622.31;;;23.03;66.11
75604;BME280;64187;51.010;13.792;2023-06-22T05:49:27;100632.25;;;23.04;66.58
75604;BME280;64187;51.010;13.792;2023-06-22T05:54:31;100628.19;;;23.10;66.06
75604;BME280;64187;51.010;13.792;2023-06-22T05:59:30;100633.81;;;23.36;64.25
75604;BME280;64187;51.010;13.792;2023-06-22T06:04:29;100617.63;;;23.69;63.22
75604;BME280;64187;51.010;13.792;2023-06-22T06:09:28;100616.38;;;23.84;63.41
75604;BME280;64187;51.010;13.792;2023-06-22T06:14:27;100604.66;;;23.78;63.89
75604;BME280;64187;51.010;13.792;2023-06-22T06:19:25;100608.25;;;23.79;63.84
75604;BME280;64187;51.010;13.792;2023-06-22T06:24:24;100582.22;;;23.80;63.88
75604;BME280;64187;51.010;13.792;2023-06-22T06:29:23;100576.78;;;24.27;62.15
75604;BME280;64187;51.010;13.792;2023-06-22T06:34:22;100505.06;;;24.69;60.65
75604;BME280;64187;51.010;13.792;2023-06-22T06:39:21;100495.13;;;24.21;62.11
75604;BME280;64187;51.010;13.792;2023-06-22T06:44:20;100515.25;;;24.86;60.50
75604;BME280;64187;51.010;13.792;2023-06-22T06:49:20;100527.38;;;24.73;60.30
75604;BME280;64187;51.010;13.792;2023-06-22T06:54:19;100497.91;;;24.98;61.00
75604;BME280;64187;51.010;13.792;2023-06-22T06:59:19;100503.44;;;25.27;59.24
75604;BME280;64187;51.010;13.792;2023-06-22T07:04:18;100512.44;;;25.45;59.27
75604;BME280;64187;51.010;13.792;2023-06-22T07:09:17;100508.03;;;25.65;57.59
75604;BME280;64187;51.010;13.792;2023-06-22T07:14:17;100509.38;;;25.80;56.69
75604;BME280;64187;51.010;13.792;2023-06-22T07:19:16;100515.97;;;26.09;56.58
75604;BME280;64187;51.010;13.792;2023-06-22T07:24:15;100524.34;;;26.21;55.89
75604;BME280;64187;51.010;13.792;2023-06-22T07:29:17;100520.09;;;26.48;56.21
75604;BME280;64187;51.010;13.792;2023-06-22T07:34:17;100509.25;;;26.92;54.80
75604;BME280;64187;51.010;13.792;2023-06-22T07:39:16;100506.13;;;27.31;54.41
75604;BME280;64187;51.010;13.792;2023-06-22T07:44:14;100505.69;;;27.57;52.84
75604;BME280;64187;51.010;13.792;2023-06-22T07:49:13;100501.63;;;27.54;52.34
75604;BME280;64187;51.010;13.792;2023-06-22T07:54:12;100508.16;;;27.74;52.63
75604;BME280;64187;51.010;13.792;2023-06-22T07:59:14;100514.50;;;27.87;51.78
75604;BME280;64187;51.010;13.792;2023-06-22T08:04:13;100507.34;;;27.74;51.51
75604;BME280;64187;51.010;13.792;2023-06-22T08:09:12;100489.25;;;28.08;50.73
75604;BME280;64187;51.010;13.792;2023-06-22T08:14:11;100492.56;;;27.98;51.48
75604;BME280;64187;51.010;13.792;2023-06-22T08:19:10;100495.34;;;28.29;50.75
75604;BME280;64187;51.010;13.792;2023-06-22T08:24:09;100478.19;;;27.96;49.81
75604;BME280;64187;51.010;13.792;2023-06-22T08:29:07;100478.13;;;28.08;49.04
75604;BME280;64187;51.010;13.792;2023-06-22T08:34:06;100481.91;;;27.87;49.10
75604;BME280;64187;51.010;13.792;2023-06-22T08:39:05;100481.78;;;27.96;49.14
75604;BME280;64187;51.010;13.792;2023-06-22T08:44:04;100477.59;;;28.34;48.66
75604;BME280;64187;51.010;13.792;2023-06-22T08:49:04;100472.09;;;28.69;48.06
75604;BME280;64187;51.010;13.792;2023-06-22T08:54:03;100478.97;;;28.56;48.07
75604;BME280;64187;51.010;13.792;2023-06-22T08:59:02;100469.88;;;28.75;48.70
75604;BME280;64187;51.010;13.792;2023-06-22T09:04:00;100470.56;;;28.72;48.59
75604;BME280;64187;51.010;13.792;2023-06-22T09:09:00;100449.22;;;28.95;48.69
75604;BME280;64187;51.010;13.792;2023-06-22T09:13:58;100460.44;;;29.15;46.52
75604;BME280;64187;51.010;13.792;2023-06-22T09:18:58;100457.75;;;29.03;47.13
75604;BME280;64187;51.010;13.792;2023-06-22T09:23:57;100436.59;;;29.17;45.95
75604;BME280;64187;51.010;13.792;2023-06-22T09:28:56;100438.66;;;29.40;45.77
75604;BME280;64187;51.010;13.792;2023-06-22T09:33:56;100446.78;;;29.49;44.64
75604;BME280;64187;51.010;13.792;2023-06-22T09:38:55;100437.25;;;29.50;45.62
75604;BME280;64187;51.010;13.792;2023-06-22T09:43:54;100432.13;;;29.32;45.62
75604;BME280;64187;51.010;13.792;2023-06-22T09:48:54;100425.50;;;29.60;45.42
75604;BME280;64187;51.010;13.792;2023-06-22T09:53:54;100422.69;;;29.02;45.17
75604;BME280;64187;51.010;13.792;2023-06-22T09:58:53;100421.31;;;29.11;45.52
75604;BME280;64187;51.010;13.792;2023-06-22T10:03:57;100431.84;;;29.18;45.54
75604;BME280;64187;51.010;13.792;2023-06-22T10:08:57;100417.88;;;29.76;44.52
75604;BME280;64187;51.010;13.792;2023-06-22T10:13:56;100407.34;;;30.12;43.59
75604;BME280;64187;51.010;13.792;2023-06-22T10:18:55;100407.22;;;30.55;42.48
75604;BME280;64187;51.010;13.792;2023-06-22T10:23:54;100400.81;;;31.07;41.65
75604;BME280;64187;51.010;13.792;2023-06-22T10:28:54;100402.94;;;31.48;39.90
75604;BME280;64187;51.010;13.792;2023-06-22T10:34:13;100394.97;;;31.20;40.99
75604;BME280;64187;51.010;13.792;2023-06-22T10:39:12;100383.34;;;31.18;40.19
75604;BME280;64187;51.010;13.792;2023-06-22T10:44:11;100380.38;;;31.37;40.25
75604;BME280;64187;51.010;13.792;2023-06-22T10:49:10;100380.22;;;31.23;40.27
75604;BME280;64187;51.010;13.792;2023-06-22T10:54:09;100375.69;;;31.45;40.06
75604;BME280;64187;51.010;13.792;2023-06-22T10:59:08;100380.41;;;30.77;40.90
75604;BME280;64187;51.010;13.792;2023-06-22T11:04:07;100378.69;;;31.29;39.99
75604;BME280;64187;51.010;13.792;2023-06-22T11:09:06;100359.09;;;31.63;40.04
75604;BME280;64187;51.010;13.792;2023-06-22T11:14:10;100357.47;;;31.62;39.88
75604;BME280;64187;51.010;13.792;2023-06-22T11:19:09;100362.00;;;31.36;40.40
75604;BME280;64187;51.010;13.792;2023-06-22T11:24:08;100350.28;;;31.61;39.81
75604;BME280;64187;51.010;13.792;2023-06-22T11:29:07;100347.78;;;31.52;39.71
75604;BME280;64187;51.010;13.792;2023-06-22T11:34:11;100340.09;;;31.83;40.29
75604;BME280;64187;51.010;13.792;2023-06-22T11:39:10;100329.22;;;31.77;39.00
75604;BME280;64187;51.010;13.792;2023-06-22T11:44:10;100323.63;;;31.77;39.72
75604;BME280;64187;51.010;13.792;2023-06-22T11:49:09;100324.97;;;31.46;39.70
75604;BME280;64187;51.010;13.792;2023-06-22T11:54:08;100318.38;;;31.69;38.95
75604;BME280;64187;51.010;13.792;2023-06-22T11:59:07;100319.41;;;31.94;41.48
75604;BME280;64187;51.010;13.792;2023-06-22T12:04:06;100313.06;;;32.01;39.58
75604;BME280;64187;51.010;13.792;2023-06-22T12:09:05;100301.47;;;32.03;37.87
75604;BME280;64187;51.010;13.792;2023-06-22T12:14:04;100292.75;;;31.67;38.55
75604;BME280;64187;51.010;13.792;2023-06-22T12:19:03;100276.16;;;31.92;37.71
75604;BME280;64187;51.010;13.792;2023-06-22T12:24:02;100282.09;;;32.38;38.45
75604;BME280;64187;51.010;13.792;2023-06-22T12:29:01;100268.59;;;32.58;37.13
75604;BME280;64187;51.010;13.792;2023-06-22T12:34:00;100268.19;;;32.56;38.33
75604;BME280;64187;51.010;13.792;2023-06-22T12:38:59;100259.81;;;32.64;37.16
75604;BME280;64187;51.010;13.792;2023-06-22T12:43:58;100248.91;;;32.48;37.62
75604;BME280;64187;51.010;13.792;2023-06-22T12:48:57;100247.47;;;32.82;38.33
75604;BME280;64187;51.010;13.792;2023-06-22T12:53:56;100240.28;;;32.85;38.08
75604;BME280;64187;51.010;13.792;2023-06-22T12:58:55;100245.81;;;32.74;36.82
75604;BME280;64187;51.010;13.792;2023-06-22T13:03:56;100227.06;;;32.96;37.60
75604;BME280;64187;51.010;13.792;2023-06-22T13:08:55;100235.78;;;32.63;36.39
75604;BME280;64187;51.010;13.792;2023-06-22T13:14:14;100228.22;;;32.81;36.18
75604;BME280;64187;51.010;13.792;2023-06-22T13:19:15;100224.16;;;32.64;37.13
75604;BME280;64187;51.010;13.792;2023-06-22T13:24:14;100215.47;;;32.98;37.16
75604;BME280;64187;51.010;13.792;2023-06-22T13:29:13;100212.72;;;33.19;36.72
75604;BME280;64187;51.010;13.792;2023-06-22T13:34:12;100208.72;;;33.42;36.43
75604;BME280;64187;51.010;13.792;2023-06-22T13:39:11;100203.81;;;32.96;35.65
75604;BME280;64187;51.010;13.792;2023-06-22T13:44:10;100193.47;;;33.07;36.11
75604;BME280;64187;51.010;13.792;2023-06-22T13:49:09;100178.63;;;33.10;36.17
75604;BME280;64187;51.010;13.792;2023-06-22T13:54:09;100166.22;;;33.08;35.12
75604;BME280;64187;51.010;13.792;2023-06-22T13:59:26;100152.16;;;32.82;36.15
75604;BME280;64187;51.010;13.792;2023-06-22T14:04:26;100150.94;;;32.87;37.51
75604;BME280;64187;51.010;13.792;2023-06-22T14:09:27;100164.22;;;33.30;36.60
75604;BME280;64187;51.010;13.792;2023-06-22T14:14:26;100154.59;;;33.27;36.61
75604;BME280;64187;51.010;13.792;2023-06-22T14:19:25;100158.59;;;33.65;35.36
75604;BME280;64187;51.010;13.792;2023-06-22T14:24:24;100137.34;;;33.61;35.90
75604;BME280;64187;51.010;13.792;2023-06-22T14:29:26;100133.31;;;33.73;35.60
75604;BME280;64187;51.010;13.792;2023-06-22T14:34:25;100128.09;;;33.64;34.84
75604;BME280;64187;51.010;13.792;2023-06-22T14:39:24;100128.91;;;33.68;34.71
75604;BME280;64187;51.010;13.792;2023-06-22T14:44:23;100128.31;;;34.23;34.14
75604;BME280;64187;51.010;13.792;2023-06-22T14:49:23;100103.91;;;33.99;34.63
75604;BME280;64187;51.010;13.792;2023-06-22T14:54:22;100090.03;;;33.56;35.30
75604;BME280;64187;51.010;13.792;2023-06-22T14:59:21;100090.06;;;33.34;35.96
75604;BME280;64187;51.010;13.792;2023-06-22T15:04:20;100076.44;;;32.93;36.32
75604;BME280;64187;51.010;13.792;2023-06-22T15:09:19;100072.03;;;32.96;37.24
75604;BME280;64187;51.010;13.792;2023-06-22T15:14:18;100071.22;;;32.99;36.50
75604;BME280;64187;51.010;13.792;2023-06-22T15:19:17;100071.63;;;33.30;36.08
75604;BME280;64187;51.010;13.792;2023-06-22T15:24:16;100080.84;;;32.87;36.57
75604;BME280;64187;51.010;13.792;2023-06-22T15:29:15;100050.00;;;32.91;36.00
75604;BME280;64187;51.010;13.792;2023-06-22T15:34:13;100037.59;;;33.06;36.80
75604;BME280;64187;51.010;13.792;2023-06-22T15:39:12;100035.19;;;32.72;36.71
75604;BME280;64187;51.010;13.792;2023-06-22T15:44:11;100021.16;;;32.83;36.66
75604;BME280;64187;51.010;13.792;2023-06-22T15:49:10;100015.56;;;32.76;36.82
75604;BME280;64187;51.010;13.792;2023-06-22T15:54:09;100009.56;;;32.77;37.44
75604;BME280;64187;51.010;13.792;2023-06-22T15:59:08;99997.50;;;32.41;38.44
75604;BME280;64187;51.010;13.792;2023-06-22T16:04:07;99994.72;;;32.80;37.97
75604;BME280;64187;51.010;13.792;2023-06-22T16:09:06;99987.50;;;32.33;40.08
75604;BME280;64187;51.010;13.792;2023-06-22T16:14:05;99982.72;;;32.69;39.44
75604;BME280;64187;51.010;13.792;2023-06-22T16:19:04;99979.09;;;32.79;39.19
75604;BME280;64187;51.010;13.792;2023-06-22T16:24:03;99983.09;;;32.35;39.37
75604;BME280;64187;51.010;13.792;2023-06-22T16:29:02;99972.16;;;31.84;40.91
75604;BME280;64187;51.010;13.792;2023-06-22T16:34:02;99973.28;;;31.65;41.80
75604;BME280;64187;51.010;13.792;2023-06-22T16:39:01;99989.44;;;32.07;41.65
75604;BME280;64187;51.010;13.792;2023-06-22T16:44:02;99990.75;;;32.53;41.50
75604;BME280;64187;51.010;13.792;2023-06-22T16:49:03;99971.97;;;33.88;39.55
75604;BME280;64187;51.010;13.792;2023-06-22T16:54:02;99972.34;;;33.97;39.14
75604;BME280;64187;51.010;13.792;2023-06-22T16:59:02;99961.47;;;34.55;37.57
75604;BME280;64187;51.010;13.792;2023-06-22T17:04:09;99951.59;;;35.23;36.22
75604;BME280;64187;51.010;13.792;2023-06-22T17:09:13;99941.38;;;35.02;36.71
75604;BME280;64187;51.010;13.792;2023-06-22T17:14:13;99938.19;;;34.55;37.11
75604;BME280;64187;51.010;13.792;2023-06-22T17:19:12;99924.28;;;34.40;37.56
75604;BME280;64187;51.010;13.792;2023-06-22T17:24:15;99912.19;;;34.88;37.05
75604;BME280;64187;51.010;13.792;2023-06-22T17:29:15;99910.50;;;34.04;38.24
75604;BME280;64187;51.010;13.792;2023-06-22T17:34:16;99898.53;;;33.19;40.43
75604;BME280;64187;51.010;13.792;2023-06-22T17:39:18;99898.56;;;31.65;43.54
75604;BME280;64187;51.010;13.792;2023-06-22T17:44:19;99888.66;;;30.91;45.78
75604;BME280;64187;51.010;13.792;2023-06-22T17:49:18;99893.13;;;30.47;46.66
75604;BME280;64187;51.010;13.792;2023-06-22T17:54:16;99886.63;;;30.29;47.09
75604;BME280;64187;51.010;13.792;2023-06-22T17:59:19;99880.56;;;29.79;48.32
75604;BME280;64187;51.010;13.792;2023-06-22T18:04:18;99864.03;;;29.63;48.89
75604;BME280;64187;51.010;13.792;2023-06-22T18:09:18;99847.53;;;29.47;48.71
75604;BME280;64187;51.010;13.792;2023-06-22T18:14:18;99846.31;;;29.11;50.29
75604;BME280;64187;51.010;13.792;2023-06-22T18:19:18;99831.75;;;28.94;50.44
75604;BME280;64187;51.010;13.792;2023-06-22T18:24:19;99833.59;;;28.83;50.55
75604;BME280;64187;51.010;13.792;2023-06-22T18:29:18;99837.59;;;28.55;51.34
75604;BME280;64187;51.010;13.792;2023-06-22T18:34:18;99828.59;;;28.66;51.48
75604;BME280;64187;51.010;13.792;2023-06-22T18:39:18;99826.97;;;28.38;52.12
75604;BME280;64187;51.010;13.792;2023-06-22T18:49:17;99815.41;;;28.36;52.56
75604;BME280;64187;51.010;13.792;2023-06-22T18:54:21;99826.53;;;28.09;53.25
75604;BME280;64187;51.010;13.792;2023-06-22T18:59:43;99836.59;;;27.95;53.93
75604;BME280;64187;51.010;13.792;2023-06-22T19:04:44;99834.94;;;28.13;53.50
75604;BME280;64187;51.010;13.792;2023-06-22T19:15:30;99842.16;;;27.71;54.55
75604;BME280;64187;51.010;13.792;2023-06-22T19:20:32;99846.13;;;27.70;54.91
75604;BME280;64187;51.010;13.792;2023-06-22T19:25:33;99839.41;;;27.52;54.95
75604;BME280;64187;51.010;13.792;2023-06-22T19:30:33;99837.22;;;27.42;55.21
75604;BME280;64187;51.010;13.792;2023-06-22T19:35:32;99834.84;;;27.40;55.62
75604;BME280;64187;51.010;13.792;2023-06-22T19:40:31;99822.41;;;27.34;56.10
75604;BME280;64187;51.010;13.792;2023-06-22T19:45:31;99796.94;;;27.13;56.62
75604;BME280;64187;51.010;13.792;2023-06-22T19:50:33;99818.81;;;27.14;56.55
75604;BME280;64187;51.010;13.792;2023-06-22T19:55:33;99806.16;;;26.97;56.96
75604;BME280;64187;51.010;13.792;2023-06-22T20:00:33;99782.47;;;27.03;56.86
75604;BME280;64187;51.010;13.792;2023-06-22T20:05:39;99777.78;;;26.88;57.08
75604;BME280;64187;51.010;13.792;2023-06-22T20:10:39;99771.66;;;26.79;57.25
75604;BME280;64187;51.010;13.792;2023-06-22T20:15:40;99786.13;;;26.88;57.53
75604;BME280;64187;51.010;13.792;2023-06-22T20:20:45;99769.25;;;26.77;57.58
75604;BME280;64187;51.010;13.792;2023-06-22T20:25:45;99735.06;;;26.73;57.63
75604;BME280;64187;51.010;13.792;2023-06-22T20:31:07;99711.59;;;26.71;58.02
75604;BME280;64187;51.010;13.792;2023-06-22T20:36:08;99711.53;;;26.67;57.95
75604;BME280;64187;51.010;13.792;2023-06-22T20:41:09;99707.44;;;26.61;58.07
75604;BME280;64187;51.010;13.792;2023-06-22T20:46:08;99699.53;;;26.43;58.70
75604;BME280;64187;51.010;13.792;2023-06-22T20:51:07;99698.06;;;26.50;58.74
75604;BME280;64187;51.010;13.792;2023-06-22T20:56:06;99680.44;;;26.42;58.71
75604;BME280;64187;51.010;13.792;2023-06-22T21:01:04;99651.19;;;26.64;58.16
75604;BME280;64187;51.010;13.792;2023-06-22T21:06:03;99665.66;;;26.54;58.70
75604;BME280;64187;51.010;13.792;2023-06-22T21:11:02;99677.75;;;26.46;59.19
75604;BME280;64187;51.010;13.792;2023-06-22T21:16:01;99684.41;;;26.41;59.22
75604;BME280;64187;51.010;13.792;2023-06-22T21:21:00;99716.59;;;26.46;59.80
75604;BME280;64187;51.010;13.792;2023-06-22T21:25:59;99746.56;;;26.20;62.02
75604;BME280;64187;51.010;13.792;2023-06-22T21:30:58;99762.47;;;26.04;63.73
75604;BME280;64187;51.010;13.792;2023-06-22T21:35:57;99782.03;;;25.64;69.08
75604;BME280;64187;51.010;13.792;2023-06-22T21:40:56;99774.81;;;25.75;67.94
75604;BME280;64187;51.010;13.792;2023-06-22T21:45:55;99773.03;;;25.67;72.11
75604;BME280;64187;51.010;13.792;2023-06-22T21:50:54;99744.22;;;25.40;73.52
75604;BME280;64187;51.010;13.792;2023-06-22T21:55:53;99695.69;;;25.30;71.67
75604;BME280;64187;51.010;13.792;2023-06-22T22:00:52;99687.38;;;25.30;72.33
75604;BME280;64187;51.010;13.792;2023-06-22T22:05:54;99698.78;;;25.28;72.76
75604;BME280;64187;51.010;13.792;2023-06-22T22:10:53;99747.81;;;24.84;79.05
75604;BME280;64187;51.010;13.792;2023-06-22T22:15:52;99770.47;;;24.74;78.32
75604;BME280;64187;51.010;13.792;2023-06-22T22:20:51;99775.88;;;24.82;77.54
75604;BME280;64187;51.010;13.792;2023-06-22T22:25:50;99787.31;;;24.68;78.64
75604;BME280;64187;51.010;13.792;2023-06-22T22:30:50;99775.56;;;24.59;80.83
75604;BME280;64187;51.010;13.792;2023-06-22T22:35:49;99841.56;;;24.33;82.41
75604;BME280;64187;51.010;13.792;2023-06-22T22:40:48;99863.22;;;24.18;83.36
75604;BME280;64187;51.010;13.792;2023-06-22T22:45:47;99838.75;;;23.83;85.46
75604;BME280;64187;51.010;13.792;2023-06-22T22:50:46;99840.00;;;23.74;85.33
75604;BME280;64187;51.010;13.792;2023-06-22T22:55:45;99848.78;;;23.55;89.06
75604;BME280;64187;51.010;13.792;2023-06-22T23:00:44;99839.88;;;23.70;87.42
75604;BME280;64187;51.010;13.792;2023-06-22T23:05:44;99817.94;;;23.53;90.05
75604;BME280;64187;51.010;13.792;2023-06-22T23:10:42;99986.34;;;23.28;90.44
75604;BME280;64187;51.010;13.792;2023-06-22T23:15:41;100072.78;;;22.26;92.63
75604;BME280;64187;51.010;13.792;2023-06-22T23:20:41;100113.47;;;21.77;90.17
75604;BME280;64187;51.010;13.792;2023-06-22T23:25:40;100148.75;;;21.57;89.42
75604;BME280;64187;51.010;13.792;2023-06-22T23:30:39;100141.28;;;20.78;91.84
75604;BME280;64187;51.010;13.792;2023-06-22T23:35:37;100158.22;;;20.49;89.66
75604;BME280;64187;51.010;13.792;2023-06-22T23:40:39;100066.25;;;20.55;90.62
75604;BME280;64187;51.010;13.792;2023-06-22T23:45:38;100101.22;;;20.40;90.44
75604;BME280;64187;51.010;13.792;2023-06-22T23:50:38;100100.59;;;20.43;88.77
75604;BME280;64187;51.010;13.792;2023-06-22T23:55:38;100050.97;;;20.49;87.43
